Time;durP1;ratioP1;P1;durP2;ratioP2;P2;SDS_P1;SDS_P2;PMS_P1;PMS_P2;Temp;Humidity;BMP_temperature;BMP_pressure;BME280_temperature;BME280_humidity;BME280_pressure;Samples;Min_cycle;Max_cycle;Signal;HPM_P1;HPM_P2
2024/02/19 00:00:09;;;;;;;20.45;4.20;;;9.70;99.90;;;;;;5075404;28;20033;-87
2024/02/19 00:02:35;;;;;;;32.50;4.38;;;9.70;99.90;;;;;;5072607;28;20037;-88
2024/02/19 00:05:00;;;;;;;26.05;4.55;;;9.70;99.90;;;;;;5072880;28;20025;-87
2024/02/19 00:07:26;;;;;;;29.60;5.50;;;10.30;99.90;;;;;;5072122;28;20030;-88
2024/02/19 00:09:52;;;;;;;27.73;4.60;;;9.70;99.90;;;;;;5072298;28;20025;-87
2024/02/19 00:12:17;;;;;;;25.05;4.47;;;9.70;99.90;;;;;;5088715;28;20114;-87
2024/02/19 00:14:43;;;;;;;39.17;5.45;;;9.70;99.90;;;;;;5103959;28;20007;-88
2024/02/19 00:17:08;;;;;;;26.48;4.40;;;9.70;99.90;;;;;;5096833;28;20378;-88
2024/02/19 00:19:34;;;;;;;25.17;4.35;;;9.70;99.90;;;;;;5085800;28;20025;-88
2024/02/19 00:22:00;;;;;;;21.83;3.85;;;9.60;99.90;;;;;;5071982;28;20036;-88
2024/02/19 00:24:25;;;;;;;23.15;3.30;;;9.60;99.90;;;;;;5091328;28;20016;-87
2024/02/19 00:26:51;;;;;;;34.03;5.07;;;9.60;99.90;;;;;;5080988;28;20151;-89
2024/02/19 00:29:16;;;;;;;26.63;5.15;;;9.60;99.90;;;;;;5076165;28;20067;-90
2024/02/19 00:31:43;;;;;;;45.45;5.50;;;9.60;99.90;;;;;;5075763;28;20035;-89
2024/02/19 00:34:09;;;;;;;32.35;4.40;;;9.60;99.90;;;;;;5079426;28;20036;-89
2024/02/19 00:36:35;;;;;;;23.80;4.13;;;9.60;99.90;;;;;;5091539;28;20035;-89
2024/02/19 00:39:00;;;;;;;23.77;3.95;;;9.60;99.90;;;;;;5090259;28;20089;-87
2024/02/19 00:41:27;;;;;;;38.42;5.82;;;9.60;99.90;;;;;;5087544;28;20056;-88
2024/02/19 00:43:52;;;;;;;30.95;5.25;;;9.60;99.90;;;;;;5079457;28;20045;-88
2024/02/19 00:46:18;;;;;;;24.95;4.03;;;9.60;99.90;;;;;;5071971;28;20100;-88
2024/02/19 00:48:43;;;;;;;45.05;5.35;;;9.60;99.90;;;;;;5071381;28;20133;-87
2024/02/19 00:51:09;;;;;;;30.92;5.43;;;9.60;99.90;;;;;;5082901;28;20039;-87
2024/02/19 00:53:38;;;;;;;35.47;5.07;;;9.60;99.90;;;;;;5091991;28;20020;-88
2024/02/19 00:56:04;;;;;;;30.92;4.43;;;9.60;99.90;;;;;;5091885;28;20028;-89
2024/02/19 00:58:29;;;;;;;33.08;5.22;;;9.50;99.90;;;;;;5091066;28;20115;-89
2024/02/19 01:00:55;;;;;;;32.10;4.32;;;10.10;99.90;;;;;;5085960;28;20039;-89
2024/02/19 01:03:21;;;;;;;26.73;4.53;;;9.50;99.90;;;;;;5071514;28;20541;-89
2024/02/19 01:05:46;;;;;;;32.05;4.43;;;9.50;99.90;;;;;;5072311;28;20028;-89
2024/02/19 01:08:12;;;;;;;28.73;4.07;;;9.50;99.90;;;;;;5076271;28;20035;-91
2024/02/19 01:10:37;;;;;;;30.70;5.38;;;9.40;99.90;;;;;;5076712;28;20032;-89
2024/02/19 01:13:03;;;;;;;27.40;3.90;;;9.40;99.90;;;;;;5073696;28;20086;-89
2024/02/19 01:15:28;;;;;;;33.90;5.53;;;9.40;99.90;;;;;;5071309;28;20012;-88
2024/02/19 01:17:54;;;;;;;27.27;5.03;;;9.40;99.90;;;;;;5071357;28;20480;-89
2024/02/19 01:20:20;;;;;;;31.50;5.35;;;9.30;99.90;;;;;;5072889;28;20502;-89
2024/02/19 01:22:45;;;;;;;38.25;6.07;;;9.30;99.90;;;;;;5087289;28;20039;-89
2024/02/19 01:25:12;;;;;;;47.75;6.35;;;9.30;99.90;;;;;;5084391;28;20024;-89
2024/02/19 01:27:37;;;;;;;30.25;5.60;;;9.30;99.90;;;;;;5091800;28;20032;-89
2024/02/19 01:30:04;;;;;;;35.85;5.85;;;9.30;99.90;;;;;;5092405;28;20031;-88
2024/02/19 01:32:30;;;;;;;29.30;4.93;;;9.20;99.90;;;;;;5091093;28;20025;-89
2024/02/19 01:34:55;;;;;;;27.02;4.63;;;9.20;99.90;;;;;;5075004;28;20040;-89
2024/02/19 01:37:21;;;;;;;31.50;5.25;;;9.20;99.90;;;;;;5070865;28;20025;-89
2024/02/19 01:39:47;;;;;;;39.67;6.75;;;9.70;99.90;;;;;;5070939;28;20126;-87
2024/02/19 01:42:12;;;;;;;31.67;6.97;;;9.20;99.90;;;;;;5080405;28;20042;-88
2024/02/19 01:44:39;;;;;;;24.58;4.47;;;9.20;99.90;;;;;;5091471;28;20024;-87
2024/02/19 01:47:07;;;;;;;28.85;4.68;;;9.30;99.90;;;;;;5092128;28;20028;-88
2024/02/19 01:49:33;;;;;;;26.85;4.85;;;9.30;99.90;;;;;;5076989;28;20388;-88
2024/02/19 01:51:59;;;;;;;30.48;5.28;;;9.30;99.90;;;;;;5072285;28;20028;-88
2024/02/19 01:54:25;;;;;;;31.50;5.50;;;9.30;99.90;;;;;;5092321;28;20029;-88
2024/02/19 01:56:53;;;;;;;39.40;5.07;;;9.30;99.90;;;;;;5092307;28;20144;-87
2024/02/19 01:59:21;;;;;;;23.73;4.90;;;9.30;99.90;;;;;;5091436;28;20489;-88
2024/02/19 02:01:48;;;;;;;28.38;5.25;;;9.30;99.90;;;;;;5086333;28;20197;-87
2024/02/19 02:04:16;;;;;;;34.35;6.18;;;9.30;99.90;;;;;;5080281;28;20468;-88
2024/02/19 02:06:43;;;;;;;31.25;5.30;;;9.30;99.90;;;;;;5072395;28;20448;-88
2024/02/19 02:09:09;;;;;;;35.75;5.20;;;9.40;99.90;;;;;;5072568;28;20021;-89
2024/02/19 02:11:35;;;;;;;46.40;5.80;;;9.30;99.90;;;;;;5072346;28;20074;-87
2024/02/19 02:14:01;;;;;;;39.72;5.18;;;9.40;99.90;;;;;;5074860;28;20503;-88
2024/02/19 02:16:28;;;;;;;33.90;4.28;;;9.40;99.90;;;;;;5075406;28;20116;-88
2024/02/19 02:18:54;;;;;;;36.75;6.63;;;9.30;99.90;;;;;;5077288;28;20031;-87
2024/02/19 02:21:20;;;;;;;28.02;5.07;;;9.40;99.90;;;;;;5074700;28;20040;-89
2024/02/19 02:23:46;;;;;;;28.63;5.18;;;9.30;99.90;;;;;;5098722;28;20019;-88
2024/02/19 02:26:12;;;;;;;23.15;4.88;;;9.40;99.90;;;;;;5079676;28;20078;-88
2024/02/19 02:28:37;;;;;;;35.88;5.60;;;9.40;99.90;;;;;;5094825;28;20035;-86
2024/02/19 02:31:03;;;;;;;20.50;4.47;;;9.40;99.90;;;;;;5095488;28;20550;-87
2024/02/19 02:33:29;;;;;;;27.15;4.82;;;9.30;99.90;;;;;;5094613;28;20027;-86
2024/02/19 02:35:54;;;;;;;24.70;4.07;;;9.40;99.90;;;;;;5093428;28;20074;-87
2024/02/19 02:38:20;;;;;;;27.10;5.30;;;9.30;99.90;;;;;;5078402;28;20107;-87
2024/02/19 02:40:45;;;;;;;30.02;4.18;;;9.30;99.90;;;;;;5073280;28;20117;-88
2024/02/19 02:43:11;;;;;;;46.20;6.10;;;9.30;99.90;;;;;;5075004;28;20479;-87
2024/02/19 02:45:36;;;;;;;21.92;3.88;;;9.30;99.90;;;;;;5078811;28;20137;-88
2024/02/19 02:48:02;;;;;;;27.40;4.30;;;9.60;99.90;;;;;;5091714;28;20060;-87
2024/02/19 02:50:28;;;;;;;39.17;4.65;;;9.30;99.90;;;;;;5078760;28;20036;-88
2024/02/19 02:52:54;;;;;;;30.23;4.93;;;9.30;99.90;;;;;;5089321;28;20102;-89
2024/02/19 02:55:19;;;;;;;20.80;4.32;;;9.30;99.90;;;;;;5094256;28;20083;-88
2024/02/19 02:57:45;;;;;;;29.75;4.80;;;9.30;99.90;;;;;;5100535;28;20545;-86
2024/02/19 03:00:11;;;;;;;27.50;4.15;;;9.30;99.90;;;;;;5096131;28;20127;-87
2024/02/19 03:02:37;;;;;;;23.55;4.15;;;9.30;99.90;;;;;;5094205;28;20641;-87
2024/02/19 03:05:03;;;;;;;23.45;3.92;;;9.30;99.90;;;;;;5094587;28;20024;-88
2024/02/19 03:07:28;;;;;;;17.25;3.35;;;9.40;99.90;;;;;;5094144;28;20449;-87
2024/02/19 03:09:54;;;;;;;22.77;3.80;;;9.40;99.90;;;;;;5090548;28;20111;-88
2024/02/19 03:12:20;;;;;;;22.55;3.50;;;9.40;99.90;;;;;;5092705;28;20020;-88
2024/02/19 03:14:46;;;;;;;19.05;3.53;;;9.40;99.90;;;;;;5082820;28;20371;-88
2024/02/19 03:17:11;;;;;;;18.27;3.50;;;9.40;99.90;;;;;;5073984;28;20021;-89
2024/02/19 03:19:37;;;;;;;13.65;2.70;;;9.40;99.90;;;;;;5074400;28;20106;-88
2024/02/19 03:22:05;;;;;;;31.70;4.32;;;10.00;99.90;;;;;;5074222;28;20033;-87
2024/02/19 03:24:31;;;;;;;22.20;4.07;;;9.40;99.90;;;;;;5072460;28;20028;-88
2024/02/19 03:27:01;;;;;;;21.17;3.75;;;9.50;99.90;;;;;;5074207;28;20145;-86
2024/02/19 03:29:28;;;;;;;16.27;3.20;;;9.50;99.90;;;;;;5073613;28;20025;-87
2024/02/19 03:31:54;;;;;;;18.25;4.22;;;9.50;99.90;;;;;;5073735;28;20029;-88
2024/02/19 03:34:19;;;;;;;25.40;4.18;;;9.50;99.90;;;;;;5087280;28;20031;-88
2024/02/19 03:36:49;;;;;;;31.42;4.40;;;9.50;99.90;;;;;;5093318;28;20111;-91
2024/02/19 03:39:15;;;;;;;12.15;3.05;;;9.50;99.90;;;;;;5090312;28;20029;-87
2024/02/19 03:41:40;;;;;;;13.98;3.20;;;9.50;99.90;;;;;;5072807;28;20075;-85
2024/02/19 03:44:06;;;;;;;23.35;3.20;;;9.50;99.90;;;;;;5072845;28;20082;-87
2024/02/19 03:46:32;;;;;;;20.95;3.08;;;9.50;99.90;;;;;;5073782;28;20078;-88
2024/02/19 03:48:57;;;;;;;24.98;3.88;;;9.60;99.90;;;;;;5073737;28;20021;-87
2024/02/19 03:51:23;;;;;;;15.35;3.20;;;9.60;99.90;;;;;;5084533;28;20456;-88
2024/02/19 03:53:48;;;;;;;18.90;3.60;;;9.60;99.90;;;;;;5097980;28;20080;-87
2024/02/19 03:56:14;;;;;;;14.93;2.58;;;9.70;99.90;;;;;;5080491;28;20082;-88
2024/02/19 03:58:53;;;;;;;22.58;3.85;;;9.70;99.90;;;;;;5072652;28;20020;-88
2024/02/19 04:01:19;;;;;;;19.33;3.75;;;9.70;99.90;;;;;;5073348;28;20384;-88
2024/02/19 04:03:44;;;;;;;24.63;4.38;;;9.70;99.90;;;;;;5072897;28;20025;-88
2024/02/19 04:06:10;;;;;;;15.23;4.32;;;9.70;99.90;;;;;;5090850;28;20020;-86
2024/02/19 04:08:35;;;;;;;21.17;3.78;;;9.70;99.90;;;;;;5093379;28;20062;-87
2024/02/19 04:11:15;;;;;;;22.15;4.65;;;9.70;99.90;;;;;;5093052;28;20028;-87
2024/02/19 04:13:40;;;;;;;12.45;3.88;;;9.70;99.90;;;;;;5098673;28;20031;-88
2024/02/19 04:16:09;;;;;;;17.38;3.72;;;9.70;99.90;;;;;;5094840;28;20031;-87
2024/02/19 04:18:35;;;;;;;15.43;3.55;;;9.70;99.90;;;;;;5073305;28;20074;-88
2024/02/19 04:21:01;;;;;;;17.88;3.17;;;9.70;99.90;;;;;;5072691;28;20025;-89
2024/02/19 04:23:26;;;;;;;13.55;3.00;;;9.70;99.90;;;;;;5081317;28;20035;-88
2024/02/19 04:25:52;;;;;;;14.32;3.65;;;9.70;99.90;;;;;;5092992;28;20062;-88
2024/02/19 04:28:17;;;;;;;16.40;2.58;;;9.70;99.90;;;;;;5093084;28;20584;-88
2024/02/19 04:30:43;;;;;;;10.95;2.58;;;9.70;99.90;;;;;;5093029;28;20386;-87
2024/02/19 04:33:09;;;;;;;23.58;5.00;;;9.70;99.90;;;;;;5092498;28;20028;-88
2024/02/19 04:35:35;;;;;;;15.18;3.70;;;9.70;99.90;;;;;;5085320;28;20025;-86
2024/02/19 04:38:00;;;;;;;21.42;3.55;;;9.70;99.90;;;;;;5073622;28;20021;-87
2024/02/19 04:40:26;;;;;;;12.57;3.00;;;9.70;99.90;;;;;;5082565;28;20074;-86
2024/02/19 04:42:51;;;;;;;17.92;2.83;;;9.70;99.90;;;;;;5092830;28;20024;-87
2024/02/19 04:45:17;;;;;;;19.27;3.08;;;9.70;99.90;;;;;;5094157;28;20024;-87
2024/02/19 04:47:42;;;;;;;14.98;3.08;;;9.80;99.90;;;;;;5095963;28;20038;-89
2024/02/19 04:50:08;;;;;;;27.13;3.42;;;9.80;99.90;;;;;;5092468;28;20069;-89
2024/02/19 04:52:34;;;;;;;18.23;4.10;;;9.80;99.90;;;;;;5092186;28;20070;-88
2024/02/19 04:54:59;;;;;;;13.98;3.22;;;9.80;99.90;;;;;;5080540;28;20043;-89
2024/02/19 04:57:25;;;;;;;11.35;2.63;;;9.80;99.90;;;;;;5073094;28;20068;-88
2024/02/19 04:59:50;;;;;;;11.57;2.72;;;9.80;99.90;;;;;;5072219;28;20028;-87
2024/02/19 05:02:16;;;;;;;14.98;3.15;;;9.80;99.90;;;;;;5071472;28;20040;-87
2024/02/19 05:04:42;;;;;;;19.02;3.67;;;9.80;99.90;;;;;;5072146;28;20379;-87
2024/02/19 05:07:08;;;;;;;10.20;2.45;;;9.80;99.90;;;;;;5080424;28;20031;-87
2024/02/19 05:09:33;;;;;;;15.73;3.88;;;9.90;99.90;;;;;;5091183;28;20020;-87
2024/02/19 05:11:59;;;;;;;18.55;3.65;;;9.80;99.90;;;;;;5092504;28;20032;-87
2024/02/19 05:14:24;;;;;;;15.68;3.15;;;9.80;99.90;;;;;;5090831;28;20239;-87
2024/02/19 05:16:50;;;;;;;15.15;3.58;;;9.80;99.90;;;;;;5080983;28;20052;-88
2024/02/19 05:19:16;;;;;;;16.33;3.75;;;9.90;99.90;;;;;;5072298;28;20028;-88
2024/02/19 05:21:41;;;;;;;23.85;4.40;;;9.90;99.90;;;;;;5076108;28;20040;-87
2024/02/19 05:24:08;;;;;;;20.13;5.00;;;9.80;99.90;;;;;;5091864;28;20016;-88
2024/02/19 05:26:34;;;;;;;13.82;4.15;;;9.80;99.90;;;;;;5092527;28;20051;-87
2024/02/19 05:29:00;;;;;;;18.83;3.45;;;9.80;99.90;;;;;;5092257;28;20043;-88
2024/02/19 05:31:34;;;;;;;16.27;4.13;;;9.80;99.90;;;;;;5091366;28;20028;-88
2024/02/19 05:34:01;;;;;;;18.42;4.30;;;9.90;99.90;;;;;;5092178;28;20032;-86
2024/02/19 05:36:27;;;;;;;13.98;3.13;;;9.80;99.90;;;;;;5073903;28;20412;-87
2024/02/19 05:38:52;;;;;;;22.55;4.05;;;9.80;99.90;;;;;;5078091;28;20024;-87
2024/02/19 05:41:18;;;;;;;15.55;3.45;;;11.00;99.90;;;;;;5075513;28;20147;-87
2024/02/19 05:43:43;;;;;;;18.02;4.30;;;9.80;99.90;;;;;;5070981;28;20060;-87
2024/02/19 05:46:09;;;;;;;24.13;4.82;;;10.10;99.90;;;;;;5073694;28;20472;-88
2024/02/19 05:48:34;;;;;;;20.98;4.30;;;9.80;99.90;;;;;;5095425;28;20082;-88
2024/02/19 05:51:03;;;;;;;25.73;4.63;;;9.80;99.90;;;;;;5095490;28;20028;-89
2024/02/19 05:53:29;;;;;;;18.55;4.38;;;9.80;99.90;;;;;;5096426;28;20045;-89
2024/02/19 05:55:55;;;;;;;13.52;4.65;;;9.80;99.90;;;;;;5097851;28;20020;-88
2024/02/19 05:58:20;;;;;;;15.43;4.32;;;9.80;99.90;;;;;;5074886;28;20064;-89
2024/02/19 06:00:46;;;;;;;18.60;4.65;;;9.80;99.90;;;;;;5084308;28;20119;-88
2024/02/19 06:03:12;;;;;;;18.85;5.78;;;9.80;99.90;;;;;;5096382;28;20063;-88
2024/02/19 06:05:38;;;;;;;15.98;4.47;;;9.80;99.90;;;;;;5087250;28;20039;-87
2024/02/19 06:08:04;;;;;;;22.15;5.45;;;9.80;99.90;;;;;;5075555;28;20028;-87
2024/02/19 06:10:29;;;;;;;18.20;5.50;;;9.80;99.90;;;;;;5074811;28;20026;-87
2024/02/19 06:12:55;;;;;;;25.55;5.90;;;9.90;99.90;;;;;;5074397;28;20032;-87
2024/02/19 06:15:22;;;;;;;17.70;4.93;;;9.80;99.90;;;;;;5075778;28;20047;-87
2024/02/19 06:17:48;;;;;;;19.92;6.20;;;9.80;99.90;;;;;;5088195;28;20460;-87
2024/02/19 06:20:14;;;;;;;17.27;5.03;;;9.80;99.90;;;;;;5077903;28;20075;-88
2024/02/19 06:22:39;;;;;;;18.83;5.03;;;9.80;99.90;;;;;;5074573;28;20032;-87
2024/02/19 06:25:05;;;;;;;22.35;5.38;;;9.70;99.90;;;;;;5075092;28;20024;-86
2024/02/19 06:27:30;;;;;;;24.67;5.95;;;9.70;99.90;;;;;;5074636;28;20086;-87
2024/02/19 06:29:56;;;;;;;25.20;6.38;;;9.70;99.90;;;;;;5074706;28;20086;-86
2024/02/19 06:32:22;;;;;;;21.92;5.20;;;9.70;99.90;;;;;;5074812;28;20463;-86
2024/02/19 06:34:47;;;;;;;15.27;6.18;;;9.70;99.90;;;;;;5074461;28;20452;-87
2024/02/19 06:37:13;;;;;;;30.95;5.28;;;9.70;99.90;;;;;;5076295;28;20417;-87
2024/02/19 06:39:40;;;;;;;23.23;6.43;;;9.70;99.90;;;;;;5076184;28;20024;-86
2024/02/19 06:42:07;;;;;;;23.90;6.28;;;9.70;99.90;;;;;;5082526;28;20036;-87
2024/02/19 06:44:32;;;;;;;21.65;5.72;;;9.70;99.90;;;;;;5095219;28;20056;-87
2024/02/19 06:46:58;;;;;;;17.13;6.38;;;9.60;99.90;;;;;;5094577;28;20426;-88
2024/02/19 06:49:23;;;;;;;18.58;5.30;;;9.60;99.90;;;;;;5094787;28;20020;-87
2024/02/19 06:51:50;;;;;;;24.55;6.00;;;9.70;99.90;;;;;;5094555;28;20049;-89
2024/02/19 06:54:15;;;;;;;14.23;5.00;;;9.70;99.90;;;;;;5085013;28;20052;-87
2024/02/19 06:56:41;;;;;;;21.10;5.55;;;9.60;99.90;;;;;;5094759;28;20104;-87
2024/02/19 06:59:07;;;;;;;28.67;6.57;;;9.70;99.90;;;;;;5091019;28;20592;-87
2024/02/19 07:01:32;;;;;;;17.80;5.00;;;9.70;99.90;;;;;;5074159;28;20123;-86
2024/02/19 07:03:58;;;;;;;23.55;6.05;;;9.70;99.90;;;;;;5074167;28;20013;-87
2024/02/19 07:06:23;;;;;;;28.52;6.22;;;9.80;99.90;;;;;;5074368;28;20376;-87
2024/02/19 07:08:49;;;;;;;19.42;5.15;;;9.80;99.90;;;;;;5074087;28;20020;-87
2024/02/19 07:11:15;;;;;;;26.35;5.45;;;9.80;99.90;;;;;;5073886;28;20040;-87
2024/02/19 07:13:40;;;;;;;15.73;6.45;;;9.80;99.90;;;;;;5074043;28;20471;-87
2024/02/19 07:16:06;;;;;;;20.38;5.22;;;9.90;99.90;;;;;;5073344;28;20468;-86
2024/02/19 07:18:31;;;;;;;13.95;5.32;;;9.90;99.90;;;;;;5074276;28;20044;-90
2024/02/19 07:20:57;;;;;;;25.48;4.97;;;9.90;99.90;;;;;;5081736;28;20042;-88
2024/02/19 07:23:22;;;;;;;18.17;4.88;;;9.90;99.90;;;;;;5084683;28;20020;-87
2024/02/19 07:25:48;;;;;;;26.23;5.95;;;9.90;99.90;;;;;;5099080;28;20476;-87
2024/02/19 07:28:14;;;;;;;24.10;6.50;;;9.90;99.90;;;;;;5092499;28;20054;-88
2024/02/19 07:30:39;;;;;;;26.38;5.93;;;9.90;99.90;;;;;;5092712;28;20032;-87
2024/02/19 07:33:05;;;;;;;14.13;4.88;;;10.00;99.90;;;;;;5094576;28;20025;-86
2024/02/19 07:35:30;;;;;;;28.23;6.97;;;9.90;99.90;;;;;;5080738;28;20430;-87
2024/02/19 07:37:57;;;;;;;20.15;5.70;;;10.00;99.90;;;;;;5085120;28;20484;-85
2024/02/19 07:40:22;;;;;;;22.13;5.43;;;10.00;99.90;;;;;;5091612;28;20044;-87
2024/02/19 07:42:48;;;;;;;16.77;5.40;;;10.00;99.90;;;;;;5098539;28;20119;-87
2024/02/19 07:45:14;;;;;;;23.63;6.20;;;10.00;99.90;;;;;;5079385;28;20028;-87
2024/02/19 07:47:39;;;;;;;22.75;5.93;;;10.10;99.90;;;;;;5093851;28;20031;-87
2024/02/19 07:50:05;;;;;;;20.20;5.78;;;10.10;99.90;;;;;;5093565;28;20042;-88
2024/02/19 07:52:31;;;;;;;23.77;5.68;;;10.10;99.90;;;;;;5093849;28;20027;-90
2024/02/19 07:54:56;;;;;;;16.15;5.75;;;10.10;99.90;;;;;;5094694;28;20063;-88
2024/02/19 07:57:22;;;;;;;16.38;5.32;;;10.20;99.90;;;;;;5076101;28;20112;-88
2024/02/19 07:59:48;;;;;;;20.15;5.40;;;10.20;99.90;;;;;;5073084;28;20074;-83
2024/02/19 08:02:13;;;;;;;18.90;5.28;;;10.10;99.90;;;;;;5072434;28;20036;-84
2024/02/19 08:04:39;;;;;;;16.23;5.05;;;10.20;99.90;;;;;;5072401;28;20028;-87
2024/02/19 08:07:04;;;;;;;35.00;5.72;;;10.10;99.90;;;;;;5072649;28;20115;-86
2024/02/19 08:09:30;;;;;;;18.00;4.75;;;10.00;99.90;;;;;;5102126;28;20066;-87
2024/02/19 08:11:57;;;;;;;17.98;6.38;;;10.10;99.90;;;;;;5090625;28;20028;-85
2024/02/19 08:14:26;;;;;;;30.63;5.20;;;10.10;99.90;;;;;;5082548;28;20444;-87
2024/02/19 08:16:52;;;;;;;17.73;5.38;;;10.00;99.90;;;;;;5094585;28;20091;-88
2024/02/19 08:19:18;;;;;;;17.00;4.28;;;10.00;99.90;;;;;;5097034;28;20016;-89
2024/02/19 08:21:44;;;;;;;17.98;4.22;;;10.00;99.90;;;;;;5092381;28;20031;-85
2024/02/19 08:24:11;;;;;;;15.50;4.80;;;10.70;99.90;;;;;;5093833;28;20024;-92
2024/02/19 08:26:37;;;;;;;18.52;4.07;;;10.00;99.90;;;;;;5092750;28;20107;-92
2024/02/19 08:29:04;;;;;;;20.52;3.97;;;10.00;99.90;;;;;;5086748;28;20150;-92
2024/02/19 08:31:30;;;;;;;18.67;4.72;;;10.00;99.90;;;;;;5072367;28;20499;-88
2024/02/19 08:33:56;;;;;;;16.25;4.57;;;10.00;99.90;;;;;;5073525;28;20086;-93
2024/02/19 08:36:22;;;;;;;10.63;3.85;;;10.00;99.90;;;;;;5077455;28;20050;-90
2024/02/19 08:38:57;;;;;;;17.88;4.57;;;10.00;99.90;;;;;;5073423;28;20483;-91
2024/02/19 08:41:22;;;;;;;16.45;3.72;;;10.40;99.90;;;;;;5082274;28;20052;-86
2024/02/19 08:43:48;;;;;;;15.93;3.55;;;10.10;99.90;;;;;;5090926;28;20030;-90
2024/02/19 08:46:15;;;;;;;26.80;4.60;;;10.00;99.90;;;;;;5079993;28;20113;-90
2024/02/19 08:48:40;;;;;;;14.30;3.38;;;10.00;99.90;;;;;;5074777;28;20123;-92
2024/02/19 08:51:06;;;;;;;18.85;3.72;;;10.10;99.90;;;;;;5091257;28;20513;-90
2024/02/19 08:53:33;;;;;;;12.52;3.90;;;10.10;99.90;;;;;;5083486;28;20028;-91
2024/02/19 08:55:58;;;;;;;14.68;4.15;;;10.10;99.90;;;;;;5080408;28;20040;-91
2024/02/19 08:58:25;;;;;;;18.80;3.75;;;10.10;99.90;;;;;;5094286;28;20035;-90
2024/02/19 09:00:51;;;;;;;16.80;3.55;;;10.10;99.90;;;;;;5091720;28;20081;-84
2024/02/19 09:03:17;;;;;;;22.30;4.38;;;10.10;99.90;;;;;;5092257;28;20032;-88
2024/02/19 09:05:43;;;;;;;25.83;5.07;;;10.20;99.90;;;;;;5089341;28;20081;-92
2024/02/19 09:08:10;;;;;;;20.58;4.70;;;10.10;99.90;;;;;;5083427;28;20102;-91
2024/02/19 09:10:36;;;;;;;20.80;4.68;;;10.50;99.90;;;;;;5090959;28;20042;-91
2024/02/19 09:13:02;;;;;;;14.63;4.45;;;10.20;99.90;;;;;;5086812;28;20016;-91
2024/02/19 09:15:27;;;;;;;18.92;4.57;;;10.20;99.90;;;;;;5085492;28;20039;-92
2024/02/19 09:17:53;;;;;;;17.75;4.50;;;10.20;99.90;;;;;;5092332;28;20359;-90
2024/02/19 09:20:19;;;;;;;16.50;4.35;;;11.00;99.90;;;;;;5090228;28;20024;-90
2024/02/19 09:22:44;;;;;;;14.02;4.28;;;11.00;99.90;;;;;;5090848;28;20535;-91
2024/02/19 09:25:11;;;;;;;21.88;5.75;;;10.20;99.90;;;;;;5095199;28;20020;-91
2024/02/19 09:27:37;;;;;;;15.20;5.35;;;10.20;99.90;;;;;;5093975;28;20099;-90
2024/02/19 09:30:03;;;;;;;17.00;3.90;;;10.20;99.90;;;;;;5088777;28;20123;-91
2024/02/19 09:32:30;;;;;;;17.52;4.22;;;10.20;99.90;;;;;;5096437;28;20089;-89
2024/02/19 09:34:55;;;;;;;11.32;4.10;;;10.30;99.90;;;;;;5101015;28;20024;-93
2024/02/19 09:37:24;;;;;;;16.55;4.93;;;10.20;99.90;;;;;;5098783;28;20468;-90
2024/02/19 09:39:57;;;;;;;14.57;4.05;;;10.30;99.90;;;;;;5098997;28;20044;-90
2024/02/19 09:42:22;;;;;;;15.52;5.20;;;10.30;99.90;;;;;;5091886;28;20502;-91
2024/02/19 09:44:48;;;;;;;19.30;4.72;;;10.30;99.90;;;;;;5095090;28;20032;-91
2024/02/19 09:47:18;;;;;;;20.80;5.00;;;10.40;99.90;;;;;;5095633;28;20034;-89
2024/02/19 09:49:44;;;;;;;18.35;5.53;;;10.40;99.90;;;;;;5097409;28;20012;-89
2024/02/19 09:52:11;;;;;;;19.63;4.88;;;10.40;99.90;;;;;;5091664;28;20411;-93
2024/02/19 09:54:37;;;;;;;16.05;5.22;;;11.20;99.90;;;;;;5097849;28;20020;-94
2024/02/19 09:57:09;;;;;;;12.95;4.43;;;10.80;99.90;;;;;;5097662;28;20077;-92
2024/02/19 09:59:36;;;;;;;22.17;5.22;;;10.50;99.90;;;;;;5095121;28;20035;-92
2024/02/19 10:02:02;;;;;;;17.15;4.80;;;11.10;99.90;;;;;;5097429;28;20032;-93
2024/02/19 10:04:31;;;;;;;17.52;5.40;;;11.10;99.90;;;;;;5107815;28;20068;-92
2024/02/19 10:07:01;;;;;;;19.63;5.15;;;11.30;99.90;;;;;;5091118;28;20044;-92
2024/02/19 10:09:26;;;;;;;17.37;5.30;;;10.60;99.90;;;;;;5096535;28;20588;-93
2024/02/19 10:11:52;;;;;;;13.93;4.55;;;10.60;99.90;;;;;;5091046;28;20446;-92
2024/02/19 10:14:18;;;;;;;13.80;4.90;;;11.30;99.90;;;;;;5095410;28;20383;-92
2024/02/19 10:16:55;;;;;;;15.20;4.80;;;10.70;99.90;;;;;;5095721;28;20020;-93
2024/02/19 10:19:20;;;;;;;15.68;4.45;;;10.70;99.90;;;;;;5094253;28;20030;-92
2024/02/19 10:21:48;;;;;;;14.75;4.38;;;11.30;99.90;;;;;;5078972;28;20312;-93
2024/02/19 10:24:17;;;;;;;15.95;5.07;;;11.30;99.90;;;;;;5091023;28;20016;-94
2024/02/19 10:26:47;;;;;;;19.83;5.45;;;11.00;99.90;;;;;;5099317;28;20564;-92
2024/02/19 10:29:14;;;;;;;15.55;5.13;;;11.20;99.90;;;;;;5097223;28;20044;-93
2024/02/19 10:31:56;;;;;;;24.05;5.43;;;10.60;99.90;;;;;;5105636;28;20032;-94
2024/02/19 10:34:23;;;;;;;18.80;4.93;;;10.90;99.90;;;;;;5104724;28;20028;-92
2024/02/19 10:36:50;;;;;;;11.70;3.78;;;11.50;99.90;;;;;;5089788;28;20030;-91
2024/02/19 10:39:15;;;;;;;16.27;4.07;;;10.90;99.90;;;;;;5094257;28;20020;-93
2024/02/19 10:41:41;;;;;;;22.42;4.90;;;11.40;99.90;;;;;;5086599;28;20496;-92
2024/02/19 10:44:06;;;;;;;19.08;4.18;;;11.70;99.90;;;;;;5100629;28;20537;-93
2024/02/19 10:46:32;;;;;;;14.57;4.35;;;10.90;99.90;;;;;;5098149;28;20039;-91
2024/02/19 10:48:58;;;;;;;11.05;4.70;;;12.00;99.90;;;;;;5094569;28;20073;-93
2024/02/19 10:51:24;;;;;;;14.68;4.20;;;11.00;99.90;;;;;;5098503;28;20032;-93
2024/02/19 10:54:03;;;;;;;12.68;4.63;;;11.30;99.90;;;;;;5100412;28;20055;-93
2024/02/19 10:56:42;;;;;;;22.73;5.32;;;11.00;99.90;;;;;;5090599;28;20055;-94
2024/02/19 10:59:08;;;;;;;13.73;4.10;;;11.00;99.90;;;;;;5102404;28;20020;-94
2024/02/19 11:04:34;;;;;;;17.17;4.78;;;11.00;99.90;;;;;;5075241;28;20036;-93
2024/02/19 11:07:22;;;;;;;15.75;4.75;;;11.60;99.90;;;;;;5096627;28;20034;-93
2024/02/19 11:09:58;;;;;;;20.13;5.10;;;9.70;99.90;;;;;;5091306;28;20032;-92
2024/02/19 11:12:26;;;;;;;15.20;4.32;;;12.20;99.90;;;;;;5091968;28;20114;-94
2024/02/19 11:14:53;;;;;;;20.50;4.60;;;11.00;99.90;;;;;;5106229;28;20027;-92
2024/02/19 11:17:19;;;;;;;19.20;4.57;;;11.00;99.90;;;;;;5103016;28;20024;-93
2024/02/19 11:19:45;;;;;;;16.73;5.75;;;11.00;99.90;;;;;;5098922;28;20472;-91
2024/02/19 11:22:19;;;;;;;16.20;4.38;;;10.90;99.90;;;;;;5096053;28;20035;-94
2024/02/19 11:25:10;;;;;;;24.13;4.72;;;10.90;99.90;;;;;;5100885;28;20095;-95
2024/02/19 11:27:35;;;;;;;;;;;10.90;99.90;;;;;;5091509;28;20024;-92
2024/02/19 11:30:03;;;;;;;17.70;5.78;;;10.90;99.90;;;;;;5096237;28;19904;-92
2024/02/19 11:32:29;;;;;;;14.98;5.30;;;10.80;99.90;;;;;;5090886;28;20099;-91
2024/02/19 11:34:55;;;;;;;17.80;4.80;;;10.80;99.90;;;;;;5096400;28;20031;-93
2024/02/19 11:37:21;;;;;;;18.73;5.28;;;10.80;99.90;;;;;;5094268;28;20024;-93
2024/02/19 11:39:46;;;;;;;22.30;5.93;;;10.80;99.90;;;;;;5080457;28;20124;-92
2024/02/19 11:42:15;;;;;;;15.55;5.38;;;10.80;99.90;;;;;;5094820;28;20032;-93
2024/02/19 11:44:42;;;;;;;23.83;5.47;;;10.80;99.90;;;;;;5081582;28;20356;-91
2024/02/19 11:47:10;;;;;;;15.63;5.05;;;10.80;99.90;;;;;;5075287;28;20033;-93
2024/02/19 11:49:36;;;;;;;14.27;5.45;;;11.00;99.90;;;;;;5073861;28;20502;-93
2024/02/19 11:52:06;;;;;;;15.10;4.65;;;10.70;99.90;;;;;;5077308;28;20115;-87
2024/02/19 11:54:33;;;;;;;19.90;5.50;;;10.70;99.90;;;;;;5096916;28;20028;-93
2024/02/19 11:57:03;;;;;;;22.88;7.15;;;10.70;99.90;;;;;;5097855;28;20028;-91
2024/02/19 11:59:30;;;;;;;15.93;5.82;;;10.70;99.90;;;;;;5095727;28;20106;-87
2024/02/19 12:01:56;;;;;;;25.05;7.03;;;10.70;99.90;;;;;;5089722;28;20040;-88
2024/02/19 12:04:22;;;;;;;20.40;6.22;;;10.70;99.90;;;;;;5083567;28;20086;-87
2024/02/19 12:06:48;;;;;;;15.45;5.85;;;10.60;99.90;;;;;;5080284;28;20028;-88
2024/02/19 12:09:15;;;;;;;27.55;7.88;;;11.00;99.90;;;;;;5092795;28;20024;-86
2024/02/19 12:11:41;;;;;;;41.13;8.85;;;10.70;99.90;;;;;;5085933;28;20040;-87
2024/02/19 12:14:10;;;;;;;26.45;7.55;;;10.70;99.90;;;;;;5072408;28;20550;-87
2024/02/19 12:16:35;;;;;;;19.65;6.50;;;10.60;99.90;;;;;;5086879;28;20019;-87
2024/02/19 12:19:01;;;;;;;21.17;7.60;;;10.60;99.90;;;;;;5087254;28;20045;-86
2024/02/19 12:21:28;;;;;;;16.58;6.82;;;11.10;99.90;;;;;;5090823;28;20090;-86
2024/02/19 12:23:54;;;;;;;14.55;5.93;;;10.40;99.90;;;;;;5082200;28;20024;-88
2024/02/19 12:26:20;;;;;;;14.57;5.88;;;10.80;99.90;;;;;;5083453;28;20812;-86
2024/02/19 12:28:46;;;;;;;20.80;6.05;;;10.50;99.90;;;;;;5092107;28;20024;-86
2024/02/19 12:31:12;;;;;;;19.48;6.30;;;10.40;99.90;;;;;;5092496;28;20038;-88
2024/02/19 12:33:38;;;;;;;20.88;5.97;;;10.40;99.90;;;;;;5093552;28;20020;-88
2024/02/19 12:36:08;;;;;;;27.08;6.15;;;10.40;99.90;;;;;;5093074;28;20502;-86
2024/02/19 12:38:41;;;;;;;;;;;10.40;99.90;;;;;;5077070;28;20041;-82
2024/02/19 12:41:11;;;;;;;26.20;6.10;;;10.40;99.90;;;;;;5079837;28;19964;-85